Time;durP1;ratioP1;P1;durP2;ratioP2;P2;SDS_P1;SDS_P2;PMS_P1;PMS_P2;Temp;Humidity;BMP_temperature;BMP_pressure;BME280_temperature;BME280_humidity;BME280_pressure;Samples;Min_cycle;Max_cycle;Signal;HPM_P1;HPM_P2
2021/01/21 00:00:03;;;;;;;12.30;8.77;;;3.50;99.90;;;;;;6195296;28;20511;-63
2021/01/21 00:03:06;;;;;;;11.37;8.80;;;3.40;99.70;;;;;;6175726;28;21001;-59
2021/01/21 00:06:08;;;;;;;10.73;8.30;;;3.40;99.50;;;;;;6175707;28;20485;-62
2021/01/21 00:09:12;;;;;;;9.43;7.67;;;3.40;99.70;;;;;;6176598;28;20501;-62
2021/01/21 00:12:15;;;;;;;12.93;9.97;;;3.40;99.60;;;;;;6177769;28;20470;-59
2021/01/21 00:15:18;;;;;;;12.80;9.10;;;3.40;99.60;;;;;;6202103;28;20471;-59
2021/01/21 00:18:20;;;;;;;17.00;11.33;;;3.30;99.70;;;;;;6226122;28;20479;-61
2021/01/21 00:21:22;;;;;;;11.40;7.03;;;3.30;99.90;;;;;;6226425;28;20479;-61
2021/01/21 00:24:24;;;;;;;11.70;8.67;;;3.30;99.90;;;;;;6225891;28;20490;-62
2021/01/21 00:27:27;;;;;;;9.57;7.40;;;3.30;99.90;;;;;;6225941;28;20467;-60
2021/01/21 00:30:29;;;;;;;10.67;7.33;;;3.30;99.90;;;;;;6226116;28;20476;-61
2021/01/21 00:33:32;;;;;;;8.57;6.70;;;3.40;99.90;;;;;;6226241;28;20483;-59
2021/01/21 00:36:35;;;;;;;9.70;5.70;;;3.40;99.90;;;;;;6225830;28;20531;-60
2021/01/21 00:39:37;;;;;;;9.23;6.30;;;3.50;99.90;;;;;;6225580;28;20471;-58
2021/01/21 00:42:40;;;;;;;9.73;6.47;;;3.60;99.90;;;;;;6205607;28;20460;-58
2021/01/21 00:45:42;;;;;;;11.97;6.93;;;3.60;99.90;;;;;;6201049;28;20481;-62
2021/01/21 00:48:45;;;;;;;12.33;7.43;;;3.70;99.70;;;;;;6201335;28;20464;-62
2021/01/21 00:51:47;;;;;;;8.83;7.03;;;3.70;99.90;;;;;;6197030;28;20783;-59
2021/01/21 00:54:50;;;;;;;7.20;5.40;;;3.70;99.80;;;;;;6201563;28;20441;-60
2021/01/21 00:57:53;;;;;;;9.07;5.93;;;3.70;99.90;;;;;;6201487;28;20469;-61
2021/01/21 01:00:55;;;;;;;4.87;4.40;;;3.80;99.90;;;;;;6200098;28;20782;-60
2021/01/21 01:03:57;;;;;;;5.30;4.77;;;4.00;99.90;;;;;;6199819;28;20469;-60
2021/01/21 01:07:01;;;;;;;6.90;4.53;;;4.00;99.90;;;;;;6194538;28;20476;-61
2021/01/21 01:10:04;;;;;;;7.23;4.73;;;4.00;99.90;;;;;;6185330;28;20958;-61
2021/01/21 01:13:07;;;;;;;5.33;3.93;;;4.20;99.90;;;;;;6187071;28;20950;-61
2021/01/21 01:16:10;;;;;;;5.37;4.10;;;4.10;99.90;;;;;;6187731;28;20499;-59
2021/01/21 01:19:12;;;;;;;8.07;5.20;;;4.30;99.90;;;;;;6190683;28;20805;-60
2021/01/21 01:22:15;;;;;;;7.70;5.97;;;4.40;99.90;;;;;;6189973;28;20957;-59
2021/01/21 01:25:18;;;;;;;6.70;5.83;;;4.40;99.90;;;;;;6188697;28;20782;-60
2021/01/21 01:28:20;;;;;;;4.90;3.93;;;4.40;99.90;;;;;;6189520;28;20473;-59
2021/01/21 01:31:23;;;;;;;6.63;4.00;;;4.50;99.90;;;;;;6184520;28;20469;-59
2021/01/21 01:34:25;;;;;;;5.37;3.80;;;4.40;99.60;;;;;;6189027;28;20525;-59
2021/01/21 01:37:27;;;;;;;5.60;3.90;;;4.60;99.40;;;;;;6186510;28;20481;-59
2021/01/21 01:40:30;;;;;;;4.90;4.40;;;4.70;99.10;;;;;;6190528;28;20472;-59
2021/01/21 01:43:33;;;;;;;5.97;3.70;;;4.80;99.00;;;;;;6200969;28;20472;-59
2021/01/21 01:46:35;;;;;;;4.00;3.60;;;4.90;98.60;;;;;;6200768;28;20524;-59
2021/01/21 01:49:38;;;;;;;3.83;3.53;;;4.90;97.90;;;;;;6200780;28;20563;-59
2021/01/21 01:52:41;;;;;;;4.20;2.00;;;5.00;97.30;;;;;;6200998;28;20488;-59
2021/01/21 01:55:44;;;;;;;4.13;3.23;;;5.10;98.60;;;;;;6200668;28;20469;-59
2021/01/21 01:58:50;;;;;;;3.03;2.73;;;5.30;98.20;;;;;;6196066;28;20477;-60
2021/01/21 02:01:53;;;;;;;4.03;3.30;;;5.30;97.80;;;;;;6200987;28;20480;-59
2021/01/21 02:04:59;;;;;;;4.90;3.50;;;5.30;97.50;;;;;;6200658;28;20791;-57
2021/01/21 02:08:01;;;;;;;5.00;3.40;;;5.40;97.40;;;;;;6200199;28;20488;-53
2021/01/21 02:11:14;;;;;;;6.10;4.47;;;5.30;97.20;;;;;;6200479;28;20515;-57
2021/01/21 02:14:24;;;;;;;6.93;5.07;;;5.20;97.00;;;;;;6200384;28;20473;-57
2021/01/21 02:17:35;;;;;;;3.37;3.07;;;5.20;97.00;;;;;;6199237;28;20480;-57
2021/01/21 02:21:11;;;;;;;4.50;3.90;;;5.20;96.90;;;;;;6176093;28;20997;-57
2021/01/21 02:24:58;;;;;;;4.20;3.80;;;5.10;97.10;;;;;;6177649;28;20981;-57
2021/01/21 02:28:32;;;;;;;4.87;3.60;;;5.10;97.00;;;;;;6174078;28;20472;-53
2021/01/21 02:32:05;;;;;;;4.83;4.13;;;5.00;97.30;;;;;;6180464;28;20573;-57
2021/01/21 02:35:12;;;;;;;6.23;4.30;;;4.90;97.80;;;;;;6180372;28;20470;-56
2021/01/21 02:38:17;;;;;;;6.27;4.43;;;4.80;97.70;;;;;;6180174;28;20488;-60
2021/01/21 02:41:20;;;;;;;4.70;3.40;;;4.70;97.70;;;;;;6179994;28;20994;-54
2021/01/21 02:44:28;;;;;;;3.87;3.43;;;4.70;97.80;;;;;;6180239;28;20469;-54
2021/01/21 02:47:30;;;;;;;4.70;3.60;;;4.60;97.90;;;;;;6180325;28;20476;-54
2021/01/21 02:50:33;;;;;;;6.10;4.30;;;4.60;97.90;;;;;;6179997;28;20474;-54
2021/01/21 02:53:38;;;;;;;5.00;4.10;;;4.60;97.70;;;;;;6179975;28;20481;-58
2021/01/21 02:56:44;;;;;;;5.70;5.10;;;4.50;98.20;;;;;;6179956;28;20493;-58
2021/01/21 02:59:48;;;;;;;4.70;3.80;;;4.50;97.80;;;;;;6179683;28;20478;-58
2021/01/21 03:02:56;;;;;;;6.03;4.30;;;4.40;97.70;;;;;;6170689;28;20593;-54
2021/01/21 03:06:02;;;;;;;5.30;4.80;;;4.40;98.10;;;;;;6179966;28;20489;-58
2021/01/21 03:09:07;;;;;;;5.10;3.67;;;4.40;97.80;;;;;;6179643;28;20827;-58
2021/01/21 03:12:19;;;;;;;4.90;4.37;;;4.20;97.70;;;;;;6179672;28;21118;-60
2021/01/21 03:15:22;;;;;;;4.97;4.03;;;4.20;98.10;;;;;;6179856;28;20482;-60
2021/01/21 03:18:24;;;;;;;9.10;6.20;;;4.20;98.30;;;;;;6179747;28;20474;-61
2021/01/21 03:21:27;;;;;;;6.50;4.70;;;4.20;98.20;;;;;;6180152;28;20809;-58
2021/01/21 03:24:30;;;;;;;3.93;3.50;;;4.10;98.60;;;;;;6179298;28;21076;-54
2021/01/21 03:27:32;;;;;;;2.47;2.27;;;4.10;98.60;;;;;;6179964;28;20470;-54
2021/01/21 03:30:35;;;;;;;3.87;3.30;;;4.20;98.90;;;;;;6179476;28;20481;-54
2021/01/21 03:33:37;;;;;;;1.97;1.77;;;4.40;98.60;;;;;;6178945;28;20469;-54
2021/01/21 03:36:40;;;;;;;3.07;2.23;;;4.60;98.60;;;;;;6183949;28;20555;-55
2021/01/21 03:39:42;;;;;;;3.07;2.20;;;5.10;97.80;;;;;;6209608;28;20457;-54
2021/01/21 03:42:44;;;;;;;3.70;2.23;;;5.30;97.30;;;;;;6216005;28;20449;-57
2021/01/21 03:45:47;;;;;;;3.43;2.43;;;5.40;96.90;;;;;;6213542;28;20477;-54
2021/01/21 03:48:49;;;;;;;3.80;3.17;;;5.50;96.80;;;;;;6215020;28;20455;-56
2021/01/21 03:51:52;;;;;;;2.50;2.30;;;5.50;96.70;;;;;;6214845;28;20478;-57
2021/01/21 03:54:54;;;;;;;3.67;3.00;;;5.50;96.70;;;;;;6213926;28;20432;-60
2021/01/21 03:57:57;;;;;;;2.80;2.60;;;5.50;96.60;;;;;;6215341;28;20457;-54
2021/01/21 04:00:59;;;;;;;2.53;2.33;;;5.50;96.70;;;;;;6213049;28;20463;-57
2021/01/21 04:04:02;;;;;;;1.70;1.60;;;5.50;96.60;;;;;;6208441;28;20559;-57
2021/01/21 04:07:05;;;;;;;1.83;1.47;;;5.60;96.50;;;;;;6215114;28;20472;-57
2021/01/21 04:10:09;;;;;;;2.60;2.40;;;5.80;96.30;;;;;;6213357;28;20802;-59
2021/01/21 04:13:12;;;;;;;2.00;1.80;;;5.80;96.10;;;;;;6213950;28;20508;-54
2021/01/21 04:16:14;;;;;;;1.70;1.60;;;5.80;96.00;;;;;;6214330;28;20465;-54
2021/01/21 04:19:17;;;;;;;3.17;2.70;;;5.80;96.10;;;;;;6213224;28;20804;-60
2021/01/21 04:22:20;;;;;;;1.90;1.80;;;5.80;95.80;;;;;;6220629;28;20798;-63
2021/01/21 04:25:23;;;;;;;2.77;2.10;;;5.80;95.80;;;;;;6226262;28;20483;-60
2021/01/21 04:28:25;;;;;;;2.37;2.00;;;5.80;95.80;;;;;;6226526;28;20493;-54
2021/01/21 04:31:27;;;;;;;2.80;2.60;;;5.70;95.70;;;;;;6226391;28;21087;-57
2021/01/21 04:34:29;;;;;;;2.80;2.60;;;5.60;95.70;;;;;;6225943;28;20804;-57
2021/01/21 04:37:32;;;;;;;5.00;2.00;;;5.60;95.90;;;;;;6226082;28;20479;-59
2021/01/21 04:40:35;;;;;;;2.60;2.40;;;5.70;95.70;;;;;;6225769;28;20994;-60
2021/01/21 04:43:38;;;;;;;4.03;3.57;;;5.60;95.70;;;;;;6226361;28;20480;-60
2021/01/21 04:46:40;;;;;;;3.27;2.97;;;5.70;96.10;;;;;;6225848;28;20476;-58
2021/01/21 04:49:45;;;;;;;4.57;3.33;;;5.60;96.00;;;;;;6225998;28;20553;-58
2021/01/21 04:52:51;;;;;;;2.53;2.33;;;5.60;96.00;;;;;;6225799;28;20812;-59
2021/01/21 04:55:57;;;;;;;1.70;1.60;;;5.60;96.30;;;;;;6225984;28;20480;-60
2021/01/21 04:59:03;;;;;;;3.80;1.73;;;5.60;96.30;;;;;;6225739;28;20574;-60
2021/01/21 05:02:07;;;;;;;1.80;1.53;;;5.70;96.20;;;;;;6225630;28;20804;-58
2021/01/21 05:05:10;;;;;;;1.70;1.10;;;5.90;96.20;;;;;;6225579;28;20534;-60
2021/01/21 05:08:14;;;;;;;1.83;1.50;;;6.00;95.90;;;;;;6225508;28;20475;-60
2021/01/21 05:11:16;;;;;;;5.90;2.10;;;6.10;95.90;;;;;;6220723;28;20835;-54
2021/01/21 05:14:18;;;;;;;1.77;1.67;;;6.20;95.60;;;;;;6225421;28;20472;-54
2021/01/21 05:17:20;;;;;;;1.67;1.50;;;6.30;95.60;;;;;;6225218;28;20483;-59
2021/01/21 05:20:26;;;;;;;1.70;1.50;;;6.50;95.20;;;;;;6225696;28;20491;-58
2021/01/21 05:23:29;;;;;;;1.43;1.30;;;6.70;94.70;;;;;;6225607;28;20468;-57
2021/01/21 05:26:32;;;;;;;2.87;1.40;;;6.90;94.30;;;;;;6224990;28;20833;-54
2021/01/21 05:29:35;;;;;;;1.57;1.30;;;7.10;94.00;;;;;;6224996;28;20476;-54
2021/01/21 05:32:37;;;;;;;2.77;1.80;;;7.20;93.70;;;;;;6225261;28;20483;-54
2021/01/21 05:35:41;;;;;;;1.63;1.53;;;7.30;93.70;;;;;;6225241;28;20475;-60
2021/01/21 05:38:55;;;;;;;3.30;2.33;;;7.20;93.70;;;;;;6224872;28;20483;-58
2021/01/21 05:41:57;;;;;;;3.90;1.60;;;7.20;93.70;;;;;;6225794;28;20499;-58
2021/01/21 05:45:00;;;;;;;1.50;1.40;;;7.20;93.60;;;;;;6225021;28;20522;-60
2021/01/21 05:48:03;;;;;;;1.50;1.40;;;7.30;93.60;;;;;;6224836;28;20498;-60
2021/01/21 05:51:06;;;;;;;1.73;1.13;;;7.40;93.00;;;;;;6224996;28;20519;-61
2021/01/21 05:54:09;;;;;;;1.50;1.40;;;7.50;92.70;;;;;;6225140;28;20476;-60
2021/01/21 05:57:12;;;;;;;1.47;1.23;;;7.70;92.50;;;;;;6224919;28;20494;-60
2021/01/21 06:00:16;;;;;;;1.67;1.57;;;7.80;92.20;;;;;;6227981;28;20472;-60
2021/01/21 06:03:19;;;;;;;1.20;1.10;;;7.90;91.80;;;;;;6229577;28;20468;-60
2021/01/21 06:06:26;;;;;;;1.27;1.00;;;8.20;91.30;;;;;;6229610;28;20835;-58
2021/01/21 06:09:31;;;;;;;1.07;1.00;;;8.30;90.80;;;;;;6229341;28;20480;-58
2021/01/21 06:12:33;;;;;;;2.20;1.07;;;8.50;90.40;;;;;;6229374;28;20472;-60
2021/01/21 06:15:38;;;;;;;0.90;0.87;;;8.60;90.20;;;;;;6220264;28;20805;-61
2021/01/21 06:18:40;;;;;;;1.77;1.10;;;8.60;90.00;;;;;;6229188;28;20483;-60
2021/01/21 06:21:48;;;;;;;1.10;1.00;;;8.80;89.30;;;;;;6229434;28;20490;-61
2021/01/21 06:24:58;;;;;;;2.73;1.00;;;8.90;88.80;;;;;;6229340;28;20424;-59
2021/01/21 06:28:04;;;;;;;1.20;1.10;;;8.90;88.40;;;;;;6229390;28;20478;-60
2021/01/21 06:31:06;;;;;;;1.80;1.50;;;8.90;88.30;;;;;;6228967;28;20810;-59
2021/01/21 06:34:15;;;;;;;1.30;1.17;;;8.80;88.90;;;;;;6229190;28;20471;-58
2021/01/21 06:37:18;;;;;;;5.53;2.20;;;8.90;87.70;;;;;;6228504;28;20468;-58
2021/01/21 06:40:24;;;;;;;2.90;2.20;;;8.80;88.20;;;;;;6228690;28;20490;-58
2021/01/21 06:43:32;;;;;;;2.97;1.57;;;8.70;89.20;;;;;;6229055;28;20499;-55
2021/01/21 06:46:35;;;;;;;3.30;1.70;;;8.50;90.20;;;;;;6228657;28;20566;-55
2021/01/21 06:49:39;;;;;;;3.07;1.50;;;8.40;90.50;;;;;;6228787;28;20480;-55
2021/01/21 06:52:42;;;;;;;1.90;1.57;;;8.30;90.30;;;;;;6228949;28;20472;-55
2021/01/21 06:55:49;;;;;;;1.47;1.37;;;8.40;90.50;;;;;;6228200;28;20985;-55
2021/01/21 06:58:53;;;;;;;5.90;2.07;;;8.40;90.80;;;;;;6228590;28;20615;-59
2021/01/21 07:01:55;;;;;;;4.27;1.87;;;8.40;90.80;;;;;;6228382;28;20831;-59
2021/01/21 07:05:08;;;;;;;2.13;1.93;;;8.30;90.90;;;;;;6228574;28;20480;-59
2021/01/21 07:08:13;;;;;;;4.10;2.37;;;8.30;90.90;;;;;;6227994;28;20991;-59
2021/01/21 07:11:17;;;;;;;2.03;1.87;;;8.30;91.10;;;;;;6227859;28;20487;-58
2021/01/21 07:14:20;;;;;;;2.33;2.10;;;8.20;91.50;;;;;;6228621;28;20491;-58
2021/01/21 07:17:29;;;;;;;3.77;2.10;;;8.20;91.30;;;;;;6223631;28;20495;-58
2021/01/21 07:20:35;;;;;;;3.77;2.60;;;8.10;91.50;;;;;;6227954;28;20484;-58
2021/01/21 07:23:43;;;;;;;3.13;2.83;;;8.10;91.70;;;;;;6227820;28;20499;-58
2021/01/21 07:26:50;;;;;;;2.63;2.43;;;7.90;91.80;;;;;;6227564;28;20564;-59
2021/01/21 07:30:18;;;;;;;3.27;2.63;;;8.00;91.80;;;;;;6227740;28;20480;-58
2021/01/21 07:33:25;;;;;;;3.50;3.07;;;7.90;92.00;;;;;;6227371;28;20472;-58
2021/01/21 07:36:31;;;;;;;6.40;2.33;;;7.80;92.20;;;;;;6227281;28;20477;-56
2021/01/21 07:39:47;;;;;;;3.20;2.90;;;7.80;92.30;;;;;;6227085;28;20980;-55
2021/01/21 07:42:54;;;;;;;2.90;2.57;;;7.80;92.40;;;;;;6227271;28;20441;-59
2021/01/21 07:46:24;;;;;;;7.50;2.57;;;7.80;92.30;;;;;;6227024;28;20476;-58
2021/01/21 07:49:27;;;;;;;5.13;3.43;;;7.90;92.40;;;;;;6226595;28;20944;-61
2021/01/21 07:52:39;;;;;;;4.40;3.10;;;7.90;92.40;;;;;;6227409;28;20476;-59
2021/01/21 07:55:41;;;;;;;5.70;3.40;;;7.80;92.20;;;;;;6227154;28;20468;-61
2021/01/21 07:58:44;;;;;;;4.37;2.70;;;7.90;91.80;;;;;;6226698;28;20822;-59
2021/01/21 08:01:57;;;;;;;4.57;2.53;;;7.90;91.80;;;;;;6226722;28;20990;-59
2021/01/21 08:04:59;;;;;;;2.50;2.30;;;8.10;91.40;;;;;;6226918;28;20487;-59
2021/01/21 08:08:03;;;;;;;3.50;2.53;;;8.10;91.20;;;;;;6226665;28;20816;-60
2021/01/21 08:11:07;;;;;;;3.13;2.50;;;8.20;91.60;;;;;;6226541;28;20824;-60
2021/01/21 08:14:10;;;;;;;6.10;2.30;;;8.20;91.10;;;;;;6226689;28;20610;-60
2021/01/21 08:17:12;;;;;;;2.23;2.03;;;8.30;90.70;;;;;;6226414;28;20483;-60
2021/01/21 08:20:16;;;;;;;4.10;2.20;;;8.40;90.10;;;;;;6226597;28;20515;-60
2021/01/21 08:23:18;;;;;;;2.37;1.40;;;8.70;89.00;;;;;;6212310;28;20583;-60
2021/01/21 08:26:20;;;;;;;3.10;2.00;;;8.70;89.00;;;;;;6226430;28;20575;-60
2021/01/21 08:29:31;;;;;;;3.67;2.13;;;8.80;89.00;;;;;;6226493;28;20480;-61
2021/01/21 08:32:33;;;;;;;3.70;2.00;;;8.80;88.30;;;;;;6226458;28;20971;-59
2021/01/21 08:35:37;;;;;;;7.77;3.50;;;8.90;88.90;;;;;;6225983;28;20971;-59
2021/01/21 08:38:57;;;;;;;6.60;3.50;;;8.90;88.30;;;;;;6225817;28;20833;-59
2021/01/21 08:42:00;;;;;;;8.33;3.00;;;8.90;88.70;;;;;;6226175;28;20495;-60
2021/01/21 08:45:05;;;;;;;5.17;3.17;;;8.80;89.10;;;;;;6225828;28;20809;-61
2021/01/21 08:48:08;;;;;;;3.73;2.63;;;8.80;88.80;;;;;;6225814;28;20476;-60
2021/01/21 08:51:34;;;;;;;3.43;2.63;;;8.70;89.40;;;;;;6225672;28;20963;-60
2021/01/21 08:54:36;;;;;;;3.80;2.80;;;8.70;89.70;;;;;;6225839;28;20473;-60
2021/01/21 08:58:00;;;;;;;3.43;2.80;;;8.70;90.10;;;;;;6225516;28;20617;-60
2021/01/21 09:01:06;;;;;;;2.60;2.40;;;8.70;89.40;;;;;;6217613;28;20471;-61
2021/01/21 09:04:22;;;;;;;3.10;2.67;;;8.70;89.30;;;;;;6217327;28;20459;-63
2021/01/21 09:07:25;;;;;;;2.93;2.50;;;8.80;88.90;;;;;;6217698;28;20483;-61
2021/01/21 09:10:35;;;;;;;4.53;2.67;;;8.90;88.60;;;;;;6225705;28;20468;-64
2021/01/21 09:13:38;;;;;;;5.37;2.30;;;8.90;88.70;;;;;;6225513;28;20816;-64
2021/01/21 09:16:45;;;;;;;3.60;2.97;;;9.00;88.60;;;;;;6219259;28;20548;-61
2021/01/21 09:19:47;;;;;;;4.33;2.37;;;9.00;88.80;;;;;;6217231;28;20480;-61
2021/01/21 09:22:50;;;;;;;3.70;2.57;;;9.10;89.00;;;;;;6201142;28;20511;-65
2021/01/21 09:25:52;;;;;;;2.60;2.07;;;9.10;89.10;;;;;;6191777;28;20560;-65
2021/01/21 09:28:55;;;;;;;2.63;2.20;;;9.20;89.20;;;;;;6201042;28;20477;-64
2021/01/21 09:31:58;;;;;;;2.60;1.93;;;9.20;89.10;;;;;;6200965;28;20496;-64
2021/01/21 09:35:04;;;;;;;2.60;2.40;;;9.30;89.50;;;;;;6203939;28;20477;-64
2021/01/21 09:38:06;;;;;;;2.93;1.97;;;9.20;89.60;;;;;;6227525;28;20472;-63
2021/01/21 09:41:08;;;;;;;3.90;2.70;;;9.30;89.50;;;;;;6229986;28;20472;-62
2021/01/21 09:44:12;;;;;;;3.50;3.13;;;9.40;89.40;;;;;;6230002;28;20549;-61
2021/01/21 09:47:15;;;;;;;3.57;2.40;;;9.40;89.20;;;;;;6229687;28;20472;-61
2021/01/21 09:50:19;;;;;;;7.70;2.80;;;9.50;89.40;;;;;;6229910;28;20468;-64
2021/01/21 09:53:21;;;;;;;3.97;2.10;;;9.50;89.00;;;;;;6229454;28;20464;-62
2021/01/21 09:56:24;;;;;;;3.43;1.90;;;9.70;88.80;;;;;;6221824;28;20467;-67
2021/01/21 09:59:28;;;;;;;3.20;2.10;;;9.80;88.40;;;;;;6229534;28;20991;-65
2021/01/21 10:02:31;;;;;;;3.60;1.83;;;9.90;88.00;;;;;;6219614;28;20475;-66
2021/01/21 10:05:34;;;;;;;3.00;1.80;;;10.00;87.00;;;;;;6228304;28;20549;-64
2021/01/21 10:08:36;;;;;;;1.50;1.40;;;10.30;85.50;;;;;;6216612;28;20584;-65
2021/01/21 10:11:39;;;;;;;3.67;2.23;;;10.60;84.50;;;;;;6211966;28;20473;-64
2021/01/21 10:14:41;;;;;;;2.70;2.10;;;11.00;83.90;;;;;;6205047;28;20465;-66
2021/01/21 10:17:44;;;;;;;2.43;2.00;;;11.30;82.20;;;;;;6205026;28;20605;-62
2021/01/21 10:20:47;;;;;;;2.37;1.97;;;11.70;81.50;;;;;;6212815;28;20949;-61
2021/01/21 10:23:49;;;;;;;2.37;2.03;;;12.00;80.10;;;;;;6204535;28;20479;-61
2021/01/21 10:26:52;;;;;;;2.10;1.80;;;12.00;79.80;;;;;;6204773;28;20489;-59
2021/01/21 10:29:54;;;;;;;3.27;1.53;;;12.20;79.10;;;;;;6200187;28;20484;-61
2021/01/21 10:33:07;;;;;;;1.50;1.40;;;12.80;76.90;;;;;;6209009;28;20873;-66
2021/01/21 10:36:10;;;;;;;3.27;2.10;;;13.50;74.80;;;;;;6228150;28;20968;-65
2021/01/21 10:39:13;;;;;;;4.40;2.13;;;14.40;71.60;;;;;;6228925;28;20495;-64
2021/01/21 10:42:17;;;;;;;2.97;1.90;;;15.50;67.70;;;;;;6228475;28;20932;-62
2021/01/21 10:45:19;;;;;;;3.40;2.10;;;17.10;62.30;;;;;;6228156;28;20464;-65
2021/01/21 10:48:22;;;;;;;2.50;1.50;;;17.60;57.50;;;;;;6228776;28;20496;-64
2021/01/21 10:51:25;;;;;;;3.10;2.00;;;17.70;56.40;;;;;;6228534;28;20483;-63
2021/01/21 10:54:27;;;;;;;2.80;1.70;;;16.70;56.20;;;;;;6228214;28;20480;-63
2021/01/21 10:57:29;;;;;;;8.43;2.10;;;16.00;57.90;;;;;;6228294;28;20468;-64
2021/01/21 11:00:32;;;;;;;3.23;1.53;;;15.30;59.20;;;;;;6228234;28;20472;-61
2021/01/21 11:03:36;;;;;;;2.00;1.87;;;15.40;59.70;;;;;;6227770;28;20530;-64
2021/01/21 11:06:38;;;;;;;3.47;1.67;;;15.60;59.00;;;;;;6227908;28;20805;-64
2021/01/21 11:09:40;;;;;;;2.30;1.53;;;15.80;58.00;;;;;;6226253;28;20476;-65
2021/01/21 11:12:44;;;;;;;3.20;1.83;;;16.50;57.50;;;;;;6203483;28;20445;-62
2021/01/21 11:15:46;;;;;;;2.30;1.40;;;16.90;55.00;;;;;;6204178;28;20448;-61
2021/01/21 11:18:50;;;;;;;2.00;1.37;;;17.10;54.50;;;;;;6203822;28;20465;-61
2021/01/21 11:21:53;;;;;;;2.87;1.60;;;17.30;53.20;;;;;;6203607;28;20519;-59
2021/01/21 11:24:57;;;;;;;3.63;1.37;;;17.50;51.90;;;;;;6203604;28;20595;-59
2021/01/21 11:28:21;;;;;;;3.70;1.63;;;18.20;51.50;;;;;;6203068;28;20461;-60
2021/01/21 11:31:23;;;;;;;2.17;1.90;;;19.70;49.30;;;;;;6202924;28;20606;-60
2021/01/21 11:34:26;;;;;;;3.73;1.30;;;20.80;45.80;;;;;;6203271;28;20230;-60
2021/01/21 11:37:28;;;;;;;1.60;1.40;;;21.20;43.20;;;;;;6202878;28;20245;-60
2021/01/21 11:40:31;;;;;;;2.60;2.00;;;20.50;43.40;;;;;;6203257;28;20307;-60
2021/01/21 11:43:33;;;;;;;6.03;1.40;;;20.00;43.70;;;;;;6203193;28;20238;-60
2021/01/21 11:46:36;;;;;;;2.53;1.40;;;18.60;44.90;;;;;;6202644;28;20973;-61
2021/01/21 11:49:39;;;;;;;2.80;1.37;;;17.80;46.60;;;;;;6202926;28;20635;-63
2021/01/21 11:52:41;;;;;;;3.43;1.40;;;17.80;48.20;;;;;;6202956;28;20469;-64
2021/01/21 11:55:43;;;;;;;4.83;1.60;;;19.30;46.40;;;;;;6202509;28;20485;-62
2021/01/21 11:58:46;;;;;;;1.73;1.00;;;21.10;44.00;;;;;;6202375;28;20249;-64
2021/01/21 12:01:48;;;;;;;2.87;1.57;;;22.70;41.50;;;;;;6202753;28;20305;-62
2021/01/21 12:04:51;;;;;;;2.87;2.10;;;23.40;38.60;;;;;;6224205;28;20696;-63
2021/01/21 12:07:54;;;;;;;2.10;1.53;;;22.80;38.50;;;;;;6226393;28;20237;-63
2021/01/21 12:10:56;;;;;;;3.40;1.60;;;20.80;40.70;;;;;;6226416;28;20791;-64
2021/01/21 12:13:58;;;;;;;3.70;2.00;;;19.40;42.50;;;;;;6226623;28;20229;-65
2021/01/21 12:17:00;;;;;;;3.73;2.27;;;18.60;44.50;;;;;;6226800;28;20476;-67
2021/01/21 12:20:05;;;;;;;3.10;2.00;;;17.90;45.90;;;;;;6226202;28;20507;-61
2021/01/21 12:23:08;;;;;;;3.90;2.13;;;17.20;47.20;;;;;;6226593;28;21002;-61
2021/01/21 12:26:10;;;;;;;1.73;1.63;;;16.10;49.40;;;;;;6225881;28;20495;-61
2021/01/21 12:29:12;;;;;;;4.30;2.23;;;15.30;51.30;;;;;;6226309;28;21082;-66
2021/01/21 12:32:14;;;;;;;3.00;1.93;;;14.90;52.20;;;;;;6226150;28;20963;-60
2021/01/21 12:35:18;;;;;;;2.83;1.90;;;14.70;53.20;;;;;;6226155;28;20487;-61
2021/01/21 12:38:20;;;;;;;8.23;2.10;;;14.30;54.10;;;;;;6216525;28;20839;-61
2021/01/21 12:41:22;;;;;;;2.30;2.03;;;14.30;54.60;;;;;;6221097;28;20480;-60
2021/01/21 12:44:24;;;;;;;1.73;1.53;;;14.20;55.00;;;;;;6218641;28;20804;-60
2021/01/21 12:47:27;;;;;;;3.13;2.10;;;14.10;55.50;;;;;;6208220;28;20477;-60
2021/01/21 12:50:31;;;;;;;9.73;2.43;;;13.90;56.30;;;;;;6201728;28;20473;-60
2021/01/21 12:53:33;;;;;;;4.27;2.03;;;13.60;57.40;;;;;;6217263;28;20472;-60
2021/01/21 12:56:35;;;;;;;4.83;2.23;;;13.40;58.20;;;;;;6225785;28;20817;-60
2021/01/21 12:59:37;;;;;;;3.20;1.80;;;13.20;59.10;;;;;;6225302;28;20498;-66
2021/01/21 13:02:40;;;;;;;4.50;2.97;;;13.10;59.80;;;;;;6225224;28;20803;-63
2021/01/21 13:05:43;;;;;;;6.23;2.90;;;12.90;60.40;;;;;;6224672;28;20833;-64
2021/01/21 13:08:45;;;;;;;4.00;2.10;;;12.80;61.20;;;;;;6225552;28;20511;-63
2021/01/21 13:11:47;;;;;;;4.93;2.00;;;12.70;62.10;;;;;;6225374;28;20483;-62
2021/01/21 13:14:50;;;;;;;6.00;2.30;;;12.60;62.90;;;;;;6226339;28;20816;-65
2021/01/21 13:17:52;;;;;;;4.67;1.90;;;12.60;63.20;;;;;;6227165;28;20551;-65
2021/01/21 13:20:56;;;;;;;2.90;1.97;;;12.30;64.20;;;;;;6226476;28;20599;-66
2021/01/21 13:23:58;;;;;;;4.30;2.00;;;12.20;64.60;;;;;;6228151;28;20511;-63
2021/01/21 13:27:01;;;;;;;2.83;2.50;;;12.20;65.00;;;;;;6226450;28;20479;-63
2021/01/21 13:30:04;;;;;;;6.27;1.73;;;12.00;65.90;;;;;;6225060;28;20818;-56
2021/01/21 13:33:07;;;;;;;5.33;2.43;;;12.00;66.50;;;;;;6225121;28;20490;-56
2021/01/21 13:36:11;;;;;;;7.93;2.97;;;12.20;66.10;;;;;;6225245;28;20955;-58
2021/01/21 13:39:15;;;;;;;4.43;2.17;;;12.20;66.30;;;;;;6224942;28;20480;-54
2021/01/21 13:42:17;;;;;;;4.07;2.40;;;12.90;65.40;;;;;;6220588;28;20822;-56
2021/01/21 13:45:19;;;;;;;6.27;2.93;;;13.10;63.90;;;;;;6224868;28;20480;-56
2021/01/21 13:48:22;;;;;;;5.97;2.17;;;13.00;64.30;;;;;;6225202;28;20486;-56
2021/01/21 13:51:28;;;;;;;4.10;2.30;;;12.80;64.70;;;;;;6224894;28;20471;-56
2021/01/21 13:54:33;;;;;;;7.00;2.43;;;12.60;65.20;;;;;;6225177;28;20468;-56
2021/01/21 13:57:35;;;;;;;5.23;2.00;;;12.50;65.90;;;;;;6224733;28;20548;-56
2021/01/21 14:00:37;;;;;;;3.67;1.90;;;12.50;66.20;;;;;;6224607;28;20820;-55
2021/01/21 14:03:40;;;;;;;4.97;2.37;;;12.30;66.30;;;;;;6224292;28;20972;-56
2021/01/21 14:06:44;;;;;;;2.87;2.23;;;12.20;67.20;;;;;;6224712;28;20574;-55
2021/01/21 14:09:46;;;;;;;3.10;1.90;;;12.00;67.80;;;;;;6224117;28;20682;-58
2021/01/21 14:12:48;;;;;;;4.50;2.30;;;12.00;67.90;;;;;;6224626;28;20456;-57
2021/01/21 14:15:51;;;;;;;4.60;2.37;;;12.10;68.20;;;;;;6224621;28;20464;-56
2021/01/21 14:18:54;;;;;;;7.63;2.50;;;12.20;68.00;;;;;;6225043;28;20492;-56
2021/01/21 14:22:13;;;;;;;3.33;2.43;;;12.40;67.60;;;;;;6229392;28;20460;-55
2021/01/21 14:25:16;;;;;;;6.10;2.13;;;12.80;67.10;;;;;;6229294;28;20479;-56
2021/01/21 14:28:18;;;;;;;4.23;2.70;;;14.10;64.50;;;;;;6228655;28;20476;-55
2021/01/21 14:31:21;;;;;;;2.33;2.13;;;15.20;60.60;;;;;;6228945;28;20539;-57
2021/01/21 14:34:23;;;;;;;4.20;2.47;;;15.90;58.00;;;;;;6228912;28;20519;-56
2021/01/21 14:37:26;;;;;;;3.30;1.60;;;15.80;57.00;;;;;;6228280;28;20471;-55
2021/01/21 14:40:29;;;;;;;4.47;2.10;;;15.50;57.30;;;;;;6228240;28;20522;-57
2021/01/21 14:43:31;;;;;;;2.90;2.10;;;14.90;58.10;;;;;;6228414;28;20475;-56
2021/01/21 14:46:34;;;;;;;2.63;2.37;;;14.60;58.50;;;;;;6228570;28;20574;-54
2021/01/21 14:49:37;;;;;;;2.83;2.53;;;14.00;59.60;;;;;;6228338;28;20490;-55
2021/01/21 14:52:40;;;;;;;4.70;2.13;;;13.80;60.30;;;;;;6228716;28;20488;-55
2021/01/21 14:55:42;;;;;;;5.67;2.27;;;13.80;60.30;;;;;;6228393;28;20529;-55
2021/01/21 14:58:44;;;;;;;6.27;2.40;;;13.70;60.50;;;;;;6227973;28;20472;-55
2021/01/21 15:01:47;;;;;;;8.40;2.67;;;13.60;60.50;;;;;;6228078;28;20487;-56
2021/01/21 15:04:49;;;;;;;5.43;2.13;;;13.50;60.80;;;;;;6227747;28;20551;-55
2021/01/21 15:07:54;;;;;;;7.27;2.53;;;13.40;61.20;;;;;;6228067;28;20506;-56
2021/01/21 15:11:00;;;;;;;5.10;2.00;;;13.30;61.70;;;;;;6228148;28;20510;-56
2021/01/21 15:14:02;;;;;;;3.40;2.47;;;13.20;62.20;;;;;;6228088;28;20479;-57
2021/01/21 15:17:06;;;;;;;6.53;2.97;;;13.10;62.60;;;;;;6228349;28;20487;-56
2021/01/21 15:20:10;;;;;;;9.03;2.43;;;13.00;62.80;;;;;;6227716;28;20491;-58
2021/01/21 15:23:13;;;;;;;8.10;2.60;;;12.80;63.40;;;;;;6227922;28;20472;-58
2021/01/21 15:26:16;;;;;;;2.40;2.20;;;12.60;64.30;;;;;;6227583;28;20486;-56
2021/01/21 15:29:19;;;;;;;4.37;2.47;;;12.40;65.30;;;;;;6228071;28;20906;-57
2021/01/21 15:32:22;;;;;;;2.07;1.83;;;12.20;66.90;;;;;;6226510;28;20546;-58
2021/01/21 15:35:24;;;;;;;4.50;2.40;;;12.00;66.80;;;;;;6227786;28;20537;-57
2021/01/21 15:38:27;;;;;;;8.20;2.57;;;11.70;68.20;;;;;;6227116;28;20506;-57
2021/01/21 15:41:30;;;;;;;4.70;2.10;;;11.40;69.40;;;;;;6227277;28;20827;-56
2021/01/21 15:44:34;;;;;;;4.83;2.70;;;11.40;70.30;;;;;;6227506;28;20464;-57
2021/01/21 15:47:37;;;;;;;3.33;2.13;;;11.30;70.50;;;;;;6227427;28;20480;-56
2021/01/21 15:50:40;;;;;;;5.03;2.23;;;11.20;70.70;;;;;;6227306;28;20571;-56
2021/01/21 15:53:43;;;;;;;5.30;2.37;;;11.10;71.40;;;;;;6226970;28;20472;-55
2021/01/21 15:56:46;;;;;;;5.47;3.90;;;11.00;71.90;;;;;;6226682;28;20963;-60
2021/01/21 15:59:48;;;;;;;10.60;3.33;;;11.00;72.40;;;;;;6226546;28;20494;-56
2021/01/21 16:02:50;;;;;;;3.57;3.07;;;10.90;73.10;;;;;;6226573;28;20472;-56
2021/01/21 16:05:53;;;;;;;8.83;3.70;;;10.80;73.70;;;;;;6226947;28;20472;-55